Time;durP1;ratioP1;P1;durP2;ratioP2;P2;SDS_P1;SDS_P2;PMS_P1;PMS_P2;Temp;Humidity;BMP_temperature;BMP_pressure;BME280_temperature;BME280_humidity;BME280_pressure;Samples;Min_cycle;Max_cycle;Signal;HPM_P1;HPM_P2
2022/03/06 00:01:10;;;;;;;21.75;12.13;;;;;;;;;;5058077;28;20040;-66
2022/03/06 00:03:56;;;;;;;24.58;13.40;;;;;;;;;;5067405;28;20425;-68
2022/03/06 00:06:41;;;;;;;23.63;12.88;;;;;;;;;;5050580;28;20044;-69
2022/03/06 00:09:26;;;;;;;19.50;11.63;;;;;;;;;;5072487;28;20024;-68
2022/03/06 00:12:12;;;;;;;19.52;11.50;;;;;;;;;;5080402;28;20036;-69
2022/03/06 00:14:57;;;;;;;22.20;12.27;;;;;;;;;;5056214;28;20364;-68
2022/03/06 00:17:42;;;;;;;23.90;12.77;;;;;;;;;;5040384;28;20036;-74
2022/03/06 00:20:28;;;;;;;18.48;11.75;;;;;;;;;;5058027;28;20031;-74
2022/03/06 00:23:13;;;;;;;22.35;11.75;;;;;;;;;;5055345;28;20070;-67
2022/03/06 00:25:58;;;;;;;22.33;12.68;;;;;;;;;;5058180;28;20482;-67
2022/03/06 00:28:44;;;;;;;20.30;11.80;;;;;;;;;;5055777;28;20116;-67
2022/03/06 00:31:29;;;;;;;21.83;12.23;;;;;;;;;;5053196;28;20039;-68
2022/03/06 00:34:14;;;;;;;20.20;12.77;;;;;;;;;;5054419;28;20044;-70
2022/03/06 00:36:59;;;;;;;21.58;12.43;;;;;;;;;;5065464;28;20025;-65
2022/03/06 00:39:46;;;;;;;19.23;10.50;;;;;;;;;;5050983;28;20372;-69
2022/03/06 00:42:31;;;;;;;19.50;12.07;;;;;;;;;;5035677;28;20480;-68
2022/03/06 00:45:17;;;;;;;19.77;12.18;;;;;;;;;;5026412;28;20032;-70
2022/03/06 00:48:02;;;;;;;19.27;11.45;;;;;;;;;;5063976;28;20123;-67
2022/03/06 00:50:47;;;;;;;24.40;11.38;;;;;;;;;;5056824;28;20032;-69
2022/03/06 00:53:32;;;;;;;21.73;12.75;;;;;;;;;;5056980;28;20051;-67
2022/03/06 00:56:18;;;;;;;21.50;12.93;;;;;;;;;;5066575;28;20048;-64
2022/03/06 00:59:03;;;;;;;22.33;11.75;;;;;;;;;;5069116;28;20046;-68
2022/03/06 01:01:48;;;;;;;21.73;10.93;;;;;;;;;;5059969;28;20483;-71
2022/03/06 01:04:34;;;;;;;22.15;12.70;;;;;;;;;;5061539;28;20040;-70
2022/03/06 01:07:19;;;;;;;19.83;11.38;;;;;;;;;;5056192;28;20061;-70
2022/03/06 01:10:05;;;;;;;19.65;10.45;;;;;;;;;;5054540;28;20024;-70
2022/03/06 01:12:50;;;;;;;22.20;10.48;;;;;;;;;;5064554;28;20151;-63
2022/03/06 01:15:36;;;;;;;17.75;11.50;;;;;;;;;;5045483;28;20561;-63
2022/03/06 01:18:21;;;;;;;20.02;11.52;;;;;;;;;;5060793;28;20028;-71
2022/03/06 01:21:06;;;;;;;18.15;10.38;;;;;;;;;;5054109;28;20041;-72
2022/03/06 01:23:52;;;;;;;19.65;11.23;;;;;;;;;;5057961;28;20040;-71
2022/03/06 01:26:37;;;;;;;18.98;11.18;;;;;;;;;;5060737;28;20028;-72
2022/03/06 01:29:23;;;;;;;19.00;10.93;;;;;;;;;;5051958;28;20066;-71
2022/03/06 01:32:08;;;;;;;17.48;10.63;;;;;;;;;;5062295;28;20050;-61
2022/03/06 01:34:53;;;;;;;20.77;10.80;;;;;;;;;;5058330;28;20037;-62
2022/03/06 01:37:38;;;;;;;20.52;10.95;;;;;;;;;;5046290;28;20028;-63
2022/03/06 01:40:24;;;;;;;22.35;12.93;;;;;;;;;;5061837;28;20040;-64
2022/03/06 01:43:09;;;;;;;18.50;11.15;;;;;;;;;;5074232;28;20247;-62
2022/03/06 01:45:54;;;;;;;21.42;11.05;;;;;;;;;;5056401;28;20028;-63
2022/03/06 01:48:40;;;;;;;21.70;10.52;;;;;;;;;;5057868;28;20032;-62
2022/03/06 01:51:25;;;;;;;22.20;12.05;;;;;;;;;;5053662;28;20033;-62
2022/03/06 01:54:10;;;;;;;24.40;12.73;;;;;;;;;;5070695;28;20093;-61
2022/03/06 01:56:55;;;;;;;20.92;11.18;;;;;;;;;;5062608;28;20036;-61
2022/03/06 01:59:41;;;;;;;17.30;10.30;;;;;;;;;;5049921;28;20035;-60
2022/03/06 02:02:26;;;;;;;20.15;11.82;;;;;;;;;;5052260;28;20211;-61
2022/03/06 02:05:11;;;;;;;19.73;11.90;;;;;;;;;;5070464;28;20028;-65
2022/03/06 02:07:57;;;;;;;18.65;11.02;;;;;;;;;;5038883;28;20039;-67
2022/03/06 02:10:42;;;;;;;21.02;11.75;;;;;;;;;;5053602;28;20764;-64
2022/03/06 02:13:27;;;;;;;25.10;12.35;;;;;;;;;;5069505;28;20075;-67
2022/03/06 02:16:13;;;;;;;19.70;11.88;;;;;;;;;;5063374;28;20027;-68
2022/03/06 02:18:58;;;;;;;21.02;11.50;;;;;;;;;;5052956;28;20576;-67
2022/03/06 02:21:47;;;;;;;19.85;11.15;;;;;;;;;;5052900;28;20037;-69
2022/03/06 02:24:32;;;;;;;23.13;12.27;;;;;;;;;;5057066;28;20383;-67
2022/03/06 02:27:18;;;;;;;22.48;11.75;;;;;;;;;;5052537;28;20052;-63
2022/03/06 02:30:05;;;;;;;19.00;11.15;;;;;;;;;;5042125;28;20017;-61
2022/03/06 02:32:51;;;;;;;20.02;11.23;;;;;;;;;;5047054;28;20485;-61
2022/03/06 02:35:37;;;;;;;24.05;12.40;;;;;;;;;;5041535;28;20453;-62
2022/03/06 02:38:22;;;;;;;23.15;11.73;;;;;;;;;;5068532;28;20055;-64
2022/03/06 02:41:07;;;;;;;20.60;11.85;;;;;;;;;;5062442;28;20336;-62
2022/03/06 02:43:52;;;;;;;18.48;11.13;;;;;;;;;;5058145;28;20036;-62
2022/03/06 02:46:38;;;;;;;20.15;12.68;;;;;;;;;;5071638;28;20032;-64
2022/03/06 02:49:23;;;;;;;19.80;11.88;;;;;;;;;;5077602;28;20054;-65
2022/03/06 02:52:09;;;;;;;24.48;13.30;;;;;;;;;;5071071;28;20419;-66
2022/03/06 02:54:54;;;;;;;23.63;12.25;;;;;;;;;;5075854;28;20066;-64
2022/03/06 02:57:40;;;;;;;20.05;10.93;;;;;;;;;;5052084;28;20028;-65
2022/03/06 03:00:26;;;;;;;23.73;12.65;;;;;;;;;;5061165;28;20031;-65
2022/03/06 03:03:11;;;;;;;19.88;11.43;;;;;;;;;;5076033;28;20036;-63
2022/03/06 03:05:57;;;;;;;22.67;12.77;;;;;;;;;;5068087;28;20036;-61
2022/03/06 03:08:42;;;;;;;21.85;11.90;;;;;;;;;;5062071;28;20097;-71
2022/03/06 03:11:29;;;;;;;20.02;11.35;;;;;;;;;;5057224;28;20033;-70
2022/03/06 03:14:14;;;;;;;21.98;12.35;;;;;;;;;;5056303;28;20388;-71
2022/03/06 03:17:00;;;;;;;20.48;12.18;;;;;;;;;;5064570;28;20115;-71
2022/03/06 03:19:45;;;;;;;23.75;13.18;;;;;;;;;;5052741;28;20021;-71
2022/03/06 03:22:30;;;;;;;21.27;12.45;;;;;;;;;;5043133;28;20119;-61
2022/03/06 03:25:15;;;;;;;23.67;13.32;;;;;;;;;;5061195;28;20039;-64
2022/03/06 03:28:01;;;;;;;21.88;12.73;;;;;;;;;;5053162;28;20383;-64
2022/03/06 03:30:46;;;;;;;23.30;13.15;;;;;;;;;;5055636;28;20050;-64
2022/03/06 03:33:31;;;;;;;24.13;12.75;;;;;;;;;;5054505;28;20033;-66
2022/03/06 03:36:16;;;;;;;23.48;13.00;;;;;;;;;;5055259;28;20208;-65
2022/03/06 03:39:02;;;;;;;21.50;12.57;;;;;;;;;;5051068;28;20025;-66
2022/03/06 03:41:48;;;;;;;23.67;12.43;;;;;;;;;;5065305;28;20074;-64
2022/03/06 03:44:33;;;;;;;23.40;12.85;;;;;;;;;;5063686;28;20028;-67
2022/03/06 03:47:18;;;;;;;23.85;13.23;;;;;;;;;;5055061;28;20036;-66
2022/03/06 03:50:04;;;;;;;22.95;12.88;;;;;;;;;;5072187;28;20028;-66
2022/03/06 03:52:49;;;;;;;22.75;12.52;;;;;;;;;;5058011;28;20335;-69
2022/03/06 03:55:35;;;;;;;23.23;12.90;;;;;;;;;;5060883;28;20302;-67
2022/03/06 03:58:20;;;;;;;19.88;11.02;;;;;;;;;;5067849;28;20090;-63
2022/03/06 04:01:05;;;;;;;20.73;11.80;;;;;;;;;;5057741;28;20040;-68
2022/03/06 04:03:51;;;;;;;23.52;12.38;;;;;;;;;;5088449;28;20093;-64
2022/03/06 04:06:36;;;;;;;22.35;12.10;;;;;;;;;;5041445;28;20103;-64
2022/03/06 04:09:21;;;;;;;22.60;12.82;;;;;;;;;;5043489;28;20032;-66
2022/03/06 04:12:07;;;;;;;22.92;12.05;;;;;;;;;;5045655;28;20024;-65
2022/03/06 04:14:52;;;;;;;20.00;12.05;;;;;;;;;;5066324;28;20432;-65
2022/03/06 04:17:37;;;;;;;22.58;11.68;;;;;;;;;;5046822;28;20168;-67
2022/03/06 04:20:23;;;;;;;19.25;11.52;;;;;;;;;;5074770;28;20431;-72
2022/03/06 04:23:08;;;;;;;21.60;12.40;;;;;;;;;;5074163;28;20047;-71
2022/03/06 04:25:53;;;;;;;21.27;12.45;;;;;;;;;;5055903;28;20449;-70
2022/03/06 04:28:38;;;;;;;21.88;11.85;;;;;;;;;;5054195;28;20085;-71
2022/03/06 04:31:24;;;;;;;21.88;11.60;;;;;;;;;;5062365;28;20047;-70
2022/03/06 04:34:09;;;;;;;22.05;11.93;;;;;;;;;;5058738;28;20035;-71
2022/03/06 04:36:54;;;;;;;20.77;11.25;;;;;;;;;;5027764;28;20390;-69
2022/03/06 04:39:40;;;;;;;22.05;11.80;;;;;;;;;;5084457;28;20028;-61
2022/03/06 04:42:25;;;;;;;20.20;11.70;;;;;;;;;;5059340;28;20052;-63
2022/03/06 04:45:10;;;;;;;21.02;11.77;;;;;;;;;;5054575;28;20020;-64
2022/03/06 04:47:55;;;;;;;23.17;12.02;;;;;;;;;;5058267;28;20024;-63
2022/03/06 04:50:41;;;;;;;20.42;11.70;;;;;;;;;;5055375;28;20356;-63
2022/03/06 04:53:26;;;;;;;19.48;11.45;;;;;;;;;;5059094;28;20039;-72
2022/03/06 04:56:11;;;;;;;23.73;12.48;;;;;;;;;;5061367;28;20152;-65
2022/03/06 04:58:57;;;;;;;21.92;11.88;;;;;;;;;;5057770;28;20039;-61
2022/03/06 05:01:42;;;;;;;20.45;12.27;;;;;;;;;;5058290;28;20040;-61
2022/03/06 05:04:28;;;;;;;21.95;12.40;;;;;;;;;;5055167;28;20028;-60
2022/03/06 05:07:13;;;;;;;20.08;10.63;;;;;;;;;;5065503;28;20490;-64
2022/03/06 05:09:58;;;;;;;19.90;11.25;;;;;;;;;;5067914;28;20042;-60
2022/03/06 05:12:43;;;;;;;21.35;12.18;;;;;;;;;;5056388;28;20051;-64
2022/03/06 05:15:29;;;;;;;22.23;11.85;;;;;;;;;;5049136;28;20067;-68
2022/03/06 05:18:14;;;;;;;20.95;11.25;;;;;;;;;;5054719;28;20039;-68
2022/03/06 05:21:00;;;;;;;23.40;11.98;;;;;;;;;;5053786;28;20096;-67
2022/03/06 05:23:45;;;;;;;22.15;12.40;;;;;;;;;;5052423;28;20078;-67
2022/03/06 05:26:31;;;;;;;21.02;11.85;;;;;;;;;;5059164;28;20032;-65
2022/03/06 05:29:16;;;;;;;21.02;11.82;;;;;;;;;;5067654;28;20031;-68
2022/03/06 05:32:01;;;;;;;19.90;11.57;;;;;;;;;;5069411;28;20449;-74
2022/03/06 05:34:46;;;;;;;21.60;11.02;;;;;;;;;;5055414;28;20500;-65
2022/03/06 05:37:32;;;;;;;21.33;12.48;;;;;;;;;;5063680;28;20031;-64
2022/03/06 05:40:17;;;;;;;23.20;12.63;;;;;;;;;;5041632;28;20475;-63
2022/03/06 05:43:02;;;;;;;26.15;12.45;;;;;;;;;;5061299;28;20498;-67
2022/03/06 05:45:52;;;;;;;20.40;10.82;;;;;;;;;;5053095;28;20071;-64
2022/03/06 05:48:37;;;;;;;19.35;11.13;;;;;;;;;;5053251;28;20036;-62
2022/03/06 05:51:22;;;;;;;22.13;12.93;;;;;;;;;;5060244;28;20040;-71
2022/03/06 05:54:08;;;;;;;21.90;12.02;;;;;;;;;;5052154;28;20067;-68
2022/03/06 05:56:53;;;;;;;20.58;12.02;;;;;;;;;;5055081;28;20024;-68
2022/03/06 05:59:38;;;;;;;24.27;13.10;;;;;;;;;;5062475;28;20483;-71
2022/03/06 06:02:24;;;;;;;22.60;11.75;;;;;;;;;;5055537;28;20036;-68
2022/03/06 06:05:13;;;;;;;22.05;12.43;;;;;;;;;;5044020;28;20122;-70
2022/03/06 06:07:58;;;;;;;19.58;12.00;;;;;;;;;;5054172;28;20090;-64
2022/03/06 06:10:45;;;;;;;19.67;11.35;;;;;;;;;;5050094;28;20033;-71
2022/03/06 06:13:30;;;;;;;20.88;11.73;;;;;;;;;;5059647;28;20036;-70
2022/03/06 06:16:15;;;;;;;21.45;13.07;;;;;;;;;;5061024;28;20023;-69
2022/03/06 06:19:01;;;;;;;21.58;11.32;;;;;;;;;;5053303;28;20082;-71
2022/03/06 06:21:46;;;;;;;19.35;10.95;;;;;;;;;;5041616;28;20038;-71
2022/03/06 06:24:31;;;;;;;20.00;11.77;;;;;;;;;;5065978;28;20028;-71
2022/03/06 06:27:16;;;;;;;21.73;12.20;;;;;;;;;;5042258;28;20059;-68
2022/03/06 06:30:02;;;;;;;21.95;12.23;;;;;;;;;;5060266;28;20489;-68
2022/03/06 06:32:47;;;;;;;26.25;13.75;;;;;;;;;;5063121;28;20039;-67
2022/03/06 06:35:34;;;;;;;22.20;12.63;;;;;;;;;;5051874;28;20099;-67
2022/03/06 06:38:20;;;;;;;21.98;12.85;;;;;;;;;;5047452;28;20090;-70
2022/03/06 06:41:06;;;;;;;23.38;12.30;;;;;;;;;;5046462;28;20055;-68
2022/03/06 06:43:51;;;;;;;23.63;13.80;;;;;;;;;;5060050;28;20063;-62
2022/03/06 06:46:36;;;;;;;26.17;13.45;;;;;;;;;;5059852;28;20029;-70
2022/03/06 06:49:22;;;;;;;24.70;12.80;;;;;;;;;;5051664;28;20157;-70
2022/03/06 06:52:07;;;;;;;23.63;12.20;;;;;;;;;;5058032;28;20072;-71
2022/03/06 06:54:52;;;;;;;22.27;12.70;;;;;;;;;;5049801;28;20044;-71
2022/03/06 06:57:38;;;;;;;22.58;12.70;;;;;;;;;;5052013;28;20040;-73
2022/03/06 07:00:23;;;;;;;23.67;13.38;;;;;;;;;;5058880;28;20309;-70
2022/03/06 07:03:09;;;;;;;26.02;12.85;;;;;;;;;;5053826;28;20488;-61
2022/03/06 07:05:55;;;;;;;24.00;12.73;;;;;;;;;;5064374;28;20094;-65
2022/03/06 07:08:41;;;;;;;24.63;13.52;;;;;;;;;;5056018;28;20565;-64
2022/03/06 07:11:26;;;;;;;22.10;12.70;;;;;;;;;;5050231;28;20084;-67
2022/03/06 07:14:11;;;;;;;24.50;13.75;;;;;;;;;;5054491;28;20499;-66
2022/03/06 07:16:56;;;;;;;22.67;13.63;;;;;;;;;;5036739;28;20029;-65
2022/03/06 07:19:42;;;;;;;22.33;12.98;;;;;;;;;;5051846;28;20421;-65
2022/03/06 07:22:27;;;;;;;30.42;15.15;;;;;;;;;;5052548;28;20028;-65
2022/03/06 07:25:12;;;;;;;27.88;15.43;;;;;;;;;;5063495;28;20046;-64
2022/03/06 07:27:57;;;;;;;24.42;13.98;;;;;;;;;;5051577;28;20075;-67
2022/03/06 07:30:43;;;;;;;21.92;13.48;;;;;;;;;;5068058;28;20382;-62
2022/03/06 07:33:28;;;;;;;23.13;12.73;;;;;;;;;;5053383;28;20032;-63
2022/03/06 07:36:13;;;;;;;24.02;13.77;;;;;;;;;;5061241;28;20323;-62
2022/03/06 07:38:58;;;;;;;22.48;13.35;;;;;;;;;;5065505;28;20032;-70
2022/03/06 07:41:44;;;;;;;23.23;13.60;;;;;;;;;;5057675;28;20475;-65
2022/03/06 07:44:29;;;;;;;22.27;13.50;;;;;;;;;;5050247;28;20281;-68
2022/03/06 07:47:14;;;;;;;25.50;13.82;;;;;;;;;;5046315;28;20447;-68
2022/03/06 07:49:59;;;;;;;24.52;12.93;;;;;;;;;;5065439;28;20035;-67
2022/03/06 07:52:45;;;;;;;21.55;12.60;;;;;;;;;;5071097;28;20024;-67
2022/03/06 07:55:30;;;;;;;24.85;13.98;;;;;;;;;;5042596;28;20028;-70
2022/03/06 07:58:15;;;;;;;21.38;13.57;;;;;;;;;;5051626;28;20023;-71
2022/03/06 08:01:00;;;;;;;21.40;14.15;;;;;;;;;;5056830;28;20309;-70
2022/03/06 08:03:46;;;;;;;22.25;13.55;;;;;;;;;;5058950;28;20056;-71
2022/03/06 08:06:31;;;;;;;23.92;13.50;;;;;;;;;;5064277;28;20028;-71
2022/03/06 08:09:16;;;;;;;24.10;14.27;;;;;;;;;;5056977;28;20032;-70
2022/03/06 08:12:02;;;;;;;24.25;14.68;;;;;;;;;;5063044;28;20039;-73
2022/03/06 08:14:48;;;;;;;24.38;13.48;;;;;;;;;;5078335;28;20078;-72
2022/03/06 08:17:35;;;;;;;26.50;15.43;;;;;;;;;;5077261;28;20051;-70
2022/03/06 08:20:20;;;;;;;24.30;14.77;;;;;;;;;;5052916;28;20041;-73
2022/03/06 08:23:05;;;;;;;21.08;13.63;;;;;;;;;;5055733;28;20068;-73
2022/03/06 08:25:51;;;;;;;22.23;14.45;;;;;;;;;;5052298;28;20376;-73
2022/03/06 08:28:36;;;;;;;24.15;13.40;;;;;;;;;;5033360;28;20577;-70
2022/03/06 08:31:21;;;;;;;23.85;14.43;;;;;;;;;;5053410;28;20036;-73
2022/03/06 08:34:07;;;;;;;23.60;13.68;;;;;;;;;;5061100;28;20041;-71
2022/03/06 08:36:52;;;;;;;21.08;12.93;;;;;;;;;;5064721;28;20622;-66
2022/03/06 08:39:37;;;;;;;21.27;13.05;;;;;;;;;;5061371;28;20054;-60
2022/03/06 08:42:22;;;;;;;23.65;14.95;;;;;;;;;;5057157;28;20364;-61
2022/03/06 08:45:08;;;;;;;20.52;13.65;;;;;;;;;;5055063;28;20054;-61
2022/03/06 08:47:53;;;;;;;20.27;13.60;;;;;;;;;;5070485;28;20107;-61
2022/03/06 08:50:38;;;;;;;19.13;12.95;;;;;;;;;;5042201;28;20360;-60
2022/03/06 08:53:24;;;;;;;19.88;14.23;;;;;;;;;;5056214;28;20120;-70
2022/03/06 08:56:09;;;;;;;23.45;14.57;;;;;;;;;;5043569;28;20028;-68
2022/03/06 08:58:55;;;;;;;19.30;13.50;;;;;;;;;;5052859;28;20040;-68
2022/03/06 09:01:40;;;;;;;21.92;13.90;;;;;;;;;;5080982;28;20021;-68
2022/03/06 09:04:25;;;;;;;18.42;13.75;;;;;;;;;;5065659;28;20108;-68
2022/03/06 09:07:10;;;;;;;18.55;12.48;;;;;;;;;;5056148;28;20037;-67
2022/03/06 09:09:56;;;;;;;18.48;13.00;;;;;;;;;;5058916;28;20093;-68
2022/03/06 09:12:41;;;;;;;18.98;12.77;;;;;;;;;;5066197;28;20032;-68
2022/03/06 09:15:27;;;;;;;20.00;13.35;;;;;;;;;;5057145;28;20549;-62
2022/03/06 09:18:12;;;;;;;18.63;13.00;;;;;;;;;;5058825;28;20059;-62
2022/03/06 09:20:57;;;;;;;18.92;12.57;;;;;;;;;;5087463;28;20412;-59
2022/03/06 09:23:43;;;;;;;20.63;13.27;;;;;;;;;;5053537;28;20040;-61
2022/03/06 09:26:28;;;;;;;20.23;13.38;;;;;;;;;;5061067;28;20035;-64
2022/03/06 09:29:14;;;;;;;19.73;13.43;;;;;;;;;;5062244;28;20394;-61
2022/03/06 09:31:59;;;;;;;21.23;13.68;;;;;;;;;;5038833;28;20529;-60
2022/03/06 09:34:44;;;;;;;21.20;13.57;;;;;;;;;;5053073;28;20037;-60
2022/03/06 09:37:29;;;;;;;17.35;12.30;;;;;;;;;;5048485;28;20120;-61
2022/03/06 09:40:15;;;;;;;20.15;13.30;;;;;;;;;;5070408;28;20027;-61
2022/03/06 09:43:00;;;;;;;18.60;12.98;;;;;;;;;;5052519;28;20390;-61
2022/03/06 09:45:46;;;;;;;21.27;12.45;;;;;;;;;;5046802;28;20527;-63
2022/03/06 09:48:32;;;;;;;17.80;13.13;;;;;;;;;;5052799;28;20035;-63
2022/03/06 09:51:17;;;;;;;18.02;12.25;;;;;;;;;;5051597;28;20503;-68
2022/03/06 09:54:02;;;;;;;19.10;13.00;;;;;;;;;;5072931;28;20081;-69
2022/03/06 09:56:48;;;;;;;18.88;12.70;;;;;;;;;;5052389;28;20487;-68
2022/03/06 09:59:34;;;;;;;17.65;11.93;;;;;;;;;;5037356;28;20119;-68
2022/03/06 10:02:19;;;;;;;19.60;12.85;;;;;;;;;;5053823;28;20498;-69
2022/03/06 10:05:05;;;;;;;18.05;13.15;;;;;;;;;;5053506;28;20031;-69
2022/03/06 10:07:50;;;;;;;18.73;12.80;;;;;;;;;;5037550;28;20028;-61
2022/03/06 10:10:36;;;;;;;18.92;13.43;;;;;;;;;;5065296;28;20104;-63
2022/03/06 10:13:23;;;;;;;17.77;12.70;;;;;;;;;;5049551;28;20036;-62
2022/03/06 10:16:08;;;;;;;17.17;13.18;;;;;;;;;;5041456;28;20121;-63
2022/03/06 10:18:55;;;;;;;16.77;12.40;;;;;;;;;;5052121;28;20085;-63
2022/03/06 10:21:40;;;;;;;18.50;13.52;;;;;;;;;;5048149;28;20272;-64
2022/03/06 10:24:26;;;;;;;19.52;13.73;;;;;;;;;;5040734;28;20028;-64
2022/03/06 10:27:12;;;;;;;18.55;12.48;;;;;;;;;;5049836;28;20156;-63
2022/03/06 10:29:57;;;;;;;18.23;12.55;;;;;;;;;;5052265;28;20036;-66
2022/03/06 10:32:43;;;;;;;20.10;12.18;;;;;;;;;;5040878;28;20071;-67
2022/03/06 10:35:31;;;;;;;17.42;12.65;;;;;;;;;;5050957;28;20111;-63
2022/03/06 10:38:16;;;;;;;18.92;12.18;;;;;;;;;;5058750;28;20032;-65
2022/03/06 10:41:09;;;;;;;18.08;12.43;;;;;;;;;;5044845;28;20040;-64
2022/03/06 10:43:55;;;;;;;17.63;12.98;;;;;;;;;;5061856;28;20078;-64
2022/03/06 10:46:40;;;;;;;17.15;12.30;;;;;;;;;;5048672;28;20027;-68
2022/03/06 10:49:26;;;;;;;17.25;11.43;;;;;;;;;;5074762;28;20038;-71
2022/03/06 10:52:13;;;;;;;16.83;10.98;;;;;;;;;;5055624;28;20028;-67
2022/03/06 10:54:58;;;;;;;18.88;11.98;;;;;;;;;;5068605;28;20082;-66
2022/03/06 10:57:54;;;;;;;18.52;12.63;;;;;;;;;;5052779;28;20121;-67
2022/03/06 11:00:40;;;;;;;17.45;12.45;;;;;;;;;;5058676;28;20535;-66
2022/03/06 11:03:25;;;;;;;20.08;12.32;;;;;;;;;;5042421;28;20024;-62
2022/03/06 11:06:11;;;;;;;16.42;12.32;;;;;;;;;;5054496;28;20108;-66
2022/03/06 11:08:56;;;;;;;17.50;12.15;;;;;;;;;;5063532;28;20036;-70
2022/03/06 11:11:43;;;;;;;18.98;12.23;;;;;;;;;;5067293;28;20032;-69
2022/03/06 11:14:30;;;;;;;18.05;12.50;;;;;;;;;;5069322;28;20029;-68
2022/03/06 11:17:16;;;;;;;16.52;11.38;;;;;;;;;;5062868;28;20390;-68
2022/03/06 11:20:02;;;;;;;18.15;11.07;;;;;;;;;;5067444;28;20082;-60
2022/03/06 11:22:49;;;;;;;16.13;10.77;;;;;;;;;;5058814;28;20035;-63
2022/03/06 11:25:37;;;;;;;21.25;10.88;;;;;;;;;;5061092;28;20031;-61
2022/03/06 11:28:38;;;;;;;15.48;10.27;;;;;;;;;;5063319;28;20089;-61
2022/03/06 11:31:23;;;;;;;16.48;11.05;;;;;;;;;;5062358;28;20043;-60
2022/03/06 11:34:09;;;;;;;16.02;11.60;;;;;;;;;;5062957;28;20101;-61
2022/03/06 11:36:55;;;;;;;17.92;11.88;;;;;;;;;;5053360;28;20074;-60
2022/03/06 11:39:40;;;;;;;18.35;11.32;;;;;;;;;;5061256;28;20082;-67
2022/03/06 11:42:44;;;;;;;16.92;10.48;;;;;;;;;;5084419;28;20035;-73
2022/03/06 11:45:43;;;;;;;19.73;11.65;;;;;;;;;;5069037;28;20068;-75
2022/03/06 11:48:34;;;;;;;16.70;11.73;;;;;;;;;;5063224;28;20074;-72
2022/03/06 11:51:26;;;;;;;18.05;11.05;;;;;;;;;;5076377;28;20096;-72
2022/03/06 11:54:14;;;;;;;17.85;11.43;;;;;;;;;;5077046;28;20070;-73
2022/03/06 11:56:59;;;;;;;15.80;10.27;;;;;;;;;;5054585;28;20043;-65
2022/03/06 11:59:46;;;;;;;16.08;10.80;;;;;;;;;;5070857;28;20048;-71
2022/03/06 12:02:43;;;;;;;16.80;10.77;;;;;;;;;;5058143;28;20479;-63
2022/03/06 12:05:45;;;;;;;16.25;10.75;;;;;;;;;;5040419;28;20051;-63
2022/03/06 12:08:40;;;;;;;15.75;10.10;;;;;;;;;;5039297;28;20081;-63
2022/03/06 12:11:26;;;;;;;14.55;9.98;;;;;;;;;;5072375;28;20036;-64
2022/03/06 12:14:12;;;;;;;14.75;9.50;;;;;;;;;;5043352;28;20032;-63
2022/03/06 12:17:00;;;;;;;14.38;9.63;;;;;;;;;;5040181;28;20033;-74
2022/03/06 12:19:45;;;;;;;14.05;9.75;;;;;;;;;;5049541;28;20021;-72
2022/03/06 12:22:43;;;;;;;18.02;11.32;;;;;;;;;;5054577;28;20495;-73
2022/03/06 12:25:29;;;;;;;15.80;9.73;;;;;;;;;;5042002;28;20022;-76
2022/03/06 12:28:16;;;;;;;14.40;9.35;;;;;;;;;;5064581;28;20111;-73
2022/03/06 12:31:21;;;;;;;15.73;9.93;;;;;;;;;;5051612;28;20112;-74
2022/03/06 12:34:30;;;;;;;17.10;9.90;;;;;;;;;;5052654;28;20036;-64
2022/03/06 12:37:22;;;;;;;13.52;9.23;;;;;;;;;;5057894;28;20391;-73
2022/03/06 12:40:14;;;;;;;13.02;9.35;;;;;;;;;;5060749;28;20032;-72
2022/03/06 12:43:08;;;;;;;14.15;9.60;;;;;;;;;;5063941;28;20479;-71
2022/03/06 12:45:54;;;;;;;15.30;9.65;;;;;;;;;;5061452;28;20071;-72
2022/03/06 12:48:39;;;;;;;15.32;9.57;;;;;;;;;;5052299;28;20036;-69
2022/03/06 12:51:34;;;;;;;15.13;10.02;;;;;;;;;;5053029;28;20036;-71
2022/03/06 12:54:24;;;;;;;15.40;11.13;;;;;;;;;;5054930;28;20068;-66
2022/03/06 12:57:09;;;;;;;14.30;9.88;;;;;;;;;;5076407;28;20059;-65
2022/03/06 12:59:54;;;;;;;14.65;9.52;;;;;;;;;;5071838;28;20044;-64
2022/03/06 13:02:40;;;;;;;15.23;10.02;;;;;;;;;;5067695;28;20089;-64
2022/03/06 13:05:25;;;;;;;18.02;10.00;;;;;;;;;;5064544;28;20052;-65
2022/03/06 13:08:11;;;;;;;17.05;10.35;;;;;;;;;;5054674;28;20040;-65
2022/03/06 13:11:04;;;;;;;16.10;10.13;;;;;;;;;;5040912;28;20040;-66
2022/03/06 13:13:58;;;;;;;14.82;8.98;;;;;;;;;;5053158;28;20086;-68
2022/03/06 13:16:43;;;;;;;15.70;9.35;;;;;;;;;;5046815;28;20039;-67
2022/03/06 13:19:37;;;;;;;13.75;8.65;;;;;;;;;;5065490;28;20040;-67
2022/03/06 13:22:26;;;;;;;15.40;9.60;;;;;;;;;;5060784;28;20199;-66
2022/03/06 13:25:11;;;;;;;13.27;8.37;;;;;;;;;;5065430;28;20115;-66
2022/03/06 13:27:57;;;;;;;13.52;9.35;;;;;;;;;;5072686;28;20032;-69
2022/03/06 13:30:42;;;;;;;14.13;9.35;;;;;;;;;;5049008;28;20024;-63
2022/03/06 13:33:27;;;;;;;13.82;8.50;;;;;;;;;;5046635;28;20036;-68
2022/03/06 13:36:13;;;;;;;14.00;9.25;;;;;;;;;;5057029;28;20040;-68
2022/03/06 13:39:15;;;;;;;15.27;8.90;;;;;;;;;;5044106;28;20024;-66
2022/03/06 13:42:01;;;;;;;15.45;9.57;;;;;;;;;;5067109;28;20036;-68
2022/03/06 13:44:55;;;;;;;13.50;8.73;;;;;;;;;;5055321;28;20036;-67
2022/03/06 13:47:42;;;;;;;13.85;8.55;;;;;;;;;;5032293;28;20479;-71
2022/03/06 13:50:35;;;;;;;13.77;8.75;;;;;;;;;;5053295;28;20037;-73
2022/03/06 13:53:20;;;;;;;14.70;8.05;;;;;;;;;;5044872;28;20108;-72
2022/03/06 13:56:06;;;;;;;13.95;9.02;;;;;;;;;;5033895;28;20479;-72
2022/03/06 13:58:53;;;;;;;14.55;9.75;;;;;;;;;;5052290;28;20560;-72
2022/03/06 14:01:39;;;;;;;14.57;9.80;;;;;;;;;;5079718;28;20046;-73
2022/03/06 14:04:26;;;;;;;12.40;8.63;;;;;;;;;;5049247;28;20476;-71
2022/03/06 14:07:11;;;;;;;14.30;9.68;;;;;;;;;;5055970;28;20024;-63
2022/03/06 14:09:57;;;;;;;16.02;9.65;;;;;;;;;;5054181;28;20042;-72
2022/03/06 14:12:45;;;;;;;14.82;9.55;;;;;;;;;;5053242;28;20108;-72
2022/03/06 14:15:33;;;;;;;15.18;8.90;;;;;;;;;;5061415;28;20059;-72
2022/03/06 14:18:30;;;;;;;15.88;10.15;;;;;;;;;;5050824;28;20044;-72
2022/03/06 14:21:24;;;;;;;13.95;10.18;;;;;;;;;;5053099;28;20479;-71
2022/03/06 14:24:13;;;;;;;15.98;10.70;;;;;;;;;;5057479;28;20115;-70
2022/03/06 14:26:59;;;;;;;15.07;9.53;;;;;;;;;;5075050;28;20031;-67
2022/03/06 14:29:46;;;;;;;16.15;10.00;;;;;;;;;;5052558;28;20510;-65
2022/03/06 14:32:31;;;;;;;15.13;10.10;;;;;;;;;;5070460;28;20471;-65
2022/03/06 14:35:16;;;;;;;16.58;9.90;;;;;;;;;;5056469;28;20121;-64
2022/03/06 14:38:02;;;;;;;14.43;10.15;;;;;;;;;;5047982;28;20036;-66
2022/03/06 14:40:47;;;;;;;16.40;8.80;;;;;;;;;;5054463;28;20020;-64
2022/03/06 14:43:33;;;;;;;12.70;8.65;;;;;;;;;;5064100;28;20036;-72
2022/03/06 14:46:19;;;;;;;13.93;9.05;;;;;;;;;;5070137;28;20560;-66
2022/03/06 14:49:08;;;;;;;13.57;8.93;;;;;;;;;;5057052;28;20047;-65
2022/03/06 14:51:53;;;;;;;13.27;8.50;;;;;;;;;;5057411;28;20032;-67
2022/03/06 14:54:38;;;;;;;12.25;8.40;;;;;;;;;;5040504;28;20032;-65
2022/03/06 14:57:24;;;;;;;20.58;10.25;;;;;;;;;;5044492;28;20035;-66
2022/03/06 15:00:10;;;;;;;14.27;9.50;;;;;;;;;;5046919;28;20044;-66
2022/03/06 15:02:55;;;;;;;14.25;9.25;;;;;;;;;;5060355;28;20228;-64
2022/03/06 15:05:40;;;;;;;15.60;9.68;;;;;;;;;;5061929;28;20158;-61
2022/03/06 15:08:25;;;;;;;16.20;9.95;;;;;;;;;;5069631;28;20036;-61
2022/03/06 15:11:13;;;;;;;15.65;9.93;;;;;;;;;;5061733;28;20051;-61
2022/03/06 15:13:58;;;;;;;17.40;9.75;;;;;;;;;;5056153;28;20043;-60
2022/03/06 15:16:43;;;;;;;15.23;10.27;;;;;;;;;;5054874;28;20032;-61
2022/03/06 15:19:28;;;;;;;16.65;9.00;;;;;;;;;;5072683;28;20036;-64
2022/03/06 15:22:16;;;;;;;14.18;9.23;;;;;;;;;;5057748;28;20230;-71
2022/03/06 15:25:03;;;;;;;15.30;10.18;;;;;;;;;;5056251;28;20024;-68
2022/03/06 15:27:48;;;;;;;14.98;9.38;;;;;;;;;;5055709;28;20610;-68
2022/03/06 15:30:33;;;;;;;17.17;9.65;;;;;;;;;;5069530;28;20024;-68
2022/03/06 15:33:18;;;;;;;15.02;9.27;;;;;;;;;;5056266;28;20539;-67
2022/03/06 15:36:04;;;;;;;14.48;9.48;;;;;;;;;;5062493;28;20297;-68
2022/03/06 15:38:49;;;;;;;13.50;9.10;;;;;;;;;;5063852;28;20060;-68
2022/03/06 15:41:34;;;;;;;13.65;9.13;;;;;;;;;;5065560;28;20059;-71
2022/03/06 15:44:20;;;;;;;14.65;9.38;;;;;;;;;;5054788;28;20095;-70
2022/03/06 15:47:06;;;;;;;12.55;8.27;;;;;;;;;;5054708;28;20535;-72
2022/03/06 15:49:51;;;;;;;14.98;9.05;;;;;;;;;;5064138;28;20187;-71
2022/03/06 15:52:36;;;;;;;12.77;9.23;;;;;;;;;;5060327;28;20032;-71
2022/03/06 15:55:22;;;;;;;14.45;9.85;;;;;;;;;;5041585;28;20080;-73
2022/03/06 15:58:07;;;;;;;16.05;10.35;;;;;;;;;;5060520;28;20070;-65
2022/03/06 16:00:52;;;;;;;15.75;9.60;;;;;;;;;;5066559;28;20024;-69
2022/03/06 16:03:38;;;;;;;16.88;9.82;;;;;;;;;;5057178;28;20711;-69
2022/03/06 16:06:24;;;;;;;15.98;10.55;;;;;;;;;;5060758;28;20646;-67
2022/03/06 16:09:09;;;;;;;14.80;8.25;;;;;;;;;;5059585;28;20309;-68